sensor_id;sensor_type;location;lat;lon;timestamp;P1;durP1;ratioP1;P2;durP2;ratioP2
40611;SDS011;26317;44.894;20.286;2024-03-06T00:04:51;25.65;;;17.42;;
40611;SDS011;26317;44.894;20.286;2024-03-06T00:07:43;19.48;;;15.68;;
40611;SDS011;26317;44.894;20.286;2024-03-06T00:10:20;16.55;;;14.48;;
40611;SDS011;26317;44.894;20.286;2024-03-06T00:13:08;18.00;;;14.27;;
40611;SDS011;26317;44.894;20.286;2024-03-06T00:15:47;18.33;;;14.48;;
40611;SDS011;26317;44.894;20.286;2024-03-06T00:21:07;14.70;;;11.52;;
40611;SDS011;26317;44.894;20.286;2024-03-06T00:23:42;15.82;;;12.48;;
40611;SDS011;26317;44.894;20.286;2024-03-06T00:26:27;13.65;;;12.10;;
40611;SDS011;26317;44.894;20.286;2024-03-06T00:29:10;13.05;;;11.73;;
40611;SDS011;26317;44.894;20.286;2024-03-06T00:31:46;16.85;;;11.82;;
40611;SDS011;26317;44.894;20.286;2024-03-06T00:34:31;14.90;;;12.00;;
40611;SDS011;26317;44.894;20.286;2024-03-06T00:37:09;14.80;;;11.73;;
40611;SDS011;26317;44.894;20.286;2024-03-06T00:39:46;16.13;;;11.45;;
40611;SDS011;26317;44.894;20.286;2024-03-06T00:42:24;18.70;;;12.18;;
40611;SDS011;26317;44.894;20.286;2024-03-06T00:45:05;15.20;;;11.35;;
40611;SDS011;26317;44.894;20.286;2024-03-06T00:47:47;17.13;;;10.63;;
40611;SDS011;26317;44.894;20.286;2024-03-06T00:50:32;14.40;;;9.23;;
40611;SDS011;26317;44.894;20.286;2024-03-06T00:53:26;13.70;;;9.10;;
40611;SDS011;26317;44.894;20.286;2024-03-06T00:55:58;17.02;;;9.80;;
40611;SDS011;26317;44.894;20.286;2024-03-06T00:58:36;15.55;;;8.68;;
40611;SDS011;26317;44.894;20.286;2024-03-06T01:01:16;13.27;;;8.93;;
40611;SDS011;26317;44.894;20.286;2024-03-06T01:03:52;17.30;;;8.10;;
40611;SDS011;26317;44.894;20.286;2024-03-06T01:06:32;14.23;;;8.70;;
40611;SDS011;26317;44.894;20.286;2024-03-06T01:09:28;16.92;;;8.70;;
40611;SDS011;26317;44.894;20.286;2024-03-06T01:12:09;13.63;;;7.85;;
40611;SDS011;26317;44.894;20.286;2024-03-06T01:14:59;16.88;;;8.52;;
40611;SDS011;26317;44.894;20.286;2024-03-06T01:17:54;15.50;;;8.65;;
40611;SDS011;26317;44.894;20.286;2024-03-06T01:20:27;16.98;;;9.00;;
40611;SDS011;26317;44.894;20.286;2024-03-06T01:23:15;15.50;;;8.43;;
40611;SDS011;26317;44.894;20.286;2024-03-06T01:25:55;14.55;;;8.77;;
40611;SDS011;26317;44.894;20.286;2024-03-06T01:28:35;14.77;;;9.57;;
40611;SDS011;26317;44.894;20.286;2024-03-06T01:31:14;15.38;;;10.32;;
40611;SDS011;26317;44.894;20.286;2024-03-06T01:33:53;15.93;;;11.07;;
40611;SDS011;26317;44.894;20.286;2024-03-06T01:36:27;14.75;;;11.20;;
40611;SDS011;26317;44.894;20.286;2024-03-06T01:39:07;15.85;;;11.18;;
40611;SDS011;26317;44.894;20.286;2024-03-06T01:41:44;17.50;;;11.18;;
40611;SDS011;26317;44.894;20.286;2024-03-06T01:44:22;19.08;;;12.30;;
40611;SDS011;26317;44.894;20.286;2024-03-06T01:46:59;16.33;;;11.68;;
40611;SDS011;26317;44.894;20.286;2024-03-06T01:49:50;14.77;;;12.30;;
40611;SDS011;26317;44.894;20.286;2024-03-06T01:52:27;14.80;;;13.05;;
40611;SDS011;26317;44.894;20.286;2024-03-06T01:55:08;15.65;;;13.05;;
40611;SDS011;26317;44.894;20.286;2024-03-06T01:57:52;14.90;;;13.23;;
40611;SDS011;26317;44.894;20.286;2024-03-06T02:00:35;19.67;;;15.60;;
40611;SDS011;26317;44.894;20.286;2024-03-06T02:03:10;21.73;;;15.02;;
40611;SDS011;26317;44.894;20.286;2024-03-06T02:06:01;19.20;;;15.45;;
40611;SDS011;26317;44.894;20.286;2024-03-06T02:08:37;20.15;;;17.13;;
40611;SDS011;26317;44.894;20.286;2024-03-06T02:11:13;20.92;;;17.58;;
40611;SDS011;26317;44.894;20.286;2024-03-06T02:13:49;21.02;;;16.98;;
40611;SDS011;26317;44.894;20.286;2024-03-06T02:16:29;20.35;;;16.63;;
40611;SDS011;26317;44.894;20.286;2024-03-06T02:19:09;20.15;;;16.33;;
40611;SDS011;26317;44.894;20.286;2024-03-06T02:22:04;21.85;;;17.10;;
40611;SDS011;26317;44.894;20.286;2024-03-06T02:24:43;22.02;;;17.10;;
40611;SDS011;26317;44.894;20.286;2024-03-06T02:27:22;25.85;;;18.38;;
40611;SDS011;26317;44.894;20.286;2024-03-06T02:30:07;20.17;;;18.02;;
40611;SDS011;26317;44.894;20.286;2024-03-06T02:32:45;27.25;;;21.27;;
40611;SDS011;26317;44.894;20.286;2024-03-06T02:35:33;23.77;;;19.65;;
40611;SDS011;26317;44.894;20.286;2024-03-06T02:38:13;22.98;;;20.58;;
40611;SDS011;26317;44.894;20.286;2024-03-06T02:40:53;24.73;;;21.88;;
40611;SDS011;26317;44.894;20.286;2024-03-06T02:43:30;26.05;;;22.58;;
40611;SDS011;26317;44.894;20.286;2024-03-06T02:46:12;27.40;;;22.70;;
40611;SDS011;26317;44.894;20.286;2024-03-06T02:48:46;31.27;;;22.02;;
40611;SDS011;26317;44.894;20.286;2024-03-06T02:51:23;29.05;;;23.25;;
40611;SDS011;26317;44.894;20.286;2024-03-06T02:54:09;27.33;;;23.00;;
40611;SDS011;26317;44.894;20.286;2024-03-06T02:56:51;26.40;;;22.58;;
40611;SDS011;26317;44.894;20.286;2024-03-06T02:59:25;27.63;;;22.88;;
40611;SDS011;26317;44.894;20.286;2024-03-06T03:02:06;25.45;;;22.55;;
40611;SDS011;26317;44.894;20.286;2024-03-06T03:04:49;28.75;;;22.98;;
40611;SDS011;26317;44.894;20.286;2024-03-06T03:07:33;29.95;;;23.70;;
40611;SDS011;26317;44.894;20.286;2024-03-06T03:10:18;25.27;;;21.70;;
40611;SDS011;26317;44.894;20.286;2024-03-06T03:12:58;28.90;;;24.45;;
40611;SDS011;26317;44.894;20.286;2024-03-06T03:15:41;31.23;;;25.65;;
40611;SDS011;26317;44.894;20.286;2024-03-06T03:18:31;30.30;;;25.73;;
40611;SDS011;26317;44.894;20.286;2024-03-06T03:21:13;30.25;;;24.77;;
40611;SDS011;26317;44.894;20.286;2024-03-06T03:24:01;31.98;;;25.63;;
40611;SDS011;26317;44.894;20.286;2024-03-06T03:26:45;37.38;;;28.50;;
40611;SDS011;26317;44.894;20.286;2024-03-06T03:29:19;31.77;;;26.15;;
40611;SDS011;26317;44.894;20.286;2024-03-06T03:32:05;32.53;;;27.00;;
40611;SDS011;26317;44.894;20.286;2024-03-06T03:34:45;36.45;;;29.08;;
40611;SDS011;26317;44.894;20.286;2024-03-06T03:37:27;33.65;;;27.70;;
40611;SDS011;26317;44.894;20.286;2024-03-06T03:40:08;33.10;;;26.77;;
40611;SDS011;26317;44.894;20.286;2024-03-06T03:43:00;39.42;;;28.55;;
40611;SDS011;26317;44.894;20.286;2024-03-06T03:45:38;32.28;;;27.48;;
40611;SDS011;26317;44.894;20.286;2024-03-06T03:48:19;33.15;;;27.83;;
40611;SDS011;26317;44.894;20.286;2024-03-06T03:50:57;33.03;;;28.50;;
40611;SDS011;26317;44.894;20.286;2024-03-06T03:53:35;33.72;;;27.40;;
40611;SDS011;26317;44.894;20.286;2024-03-06T03:56:21;33.30;;;26.73;;
40611;SDS011;26317;44.894;20.286;2024-03-06T03:59:17;32.97;;;28.08;;
40611;SDS011;26317;44.894;20.286;2024-03-06T04:01:53;34.28;;;27.58;;
40611;SDS011;26317;44.894;20.286;2024-03-06T04:04:34;33.35;;;28.23;;
40611;SDS011;26317;44.894;20.286;2024-03-06T04:07:10;39.65;;;29.05;;
40611;SDS011;26317;44.894;20.286;2024-03-06T04:09:49;33.13;;;28.23;;
40611;SDS011;26317;44.894;20.286;2024-03-06T04:12:32;33.30;;;28.85;;
40611;SDS011;26317;44.894;20.286;2024-03-06T04:15:19;34.42;;;27.85;;
40611;SDS011;26317;44.894;20.286;2024-03-06T04:17:56;36.95;;;29.35;;
40611;SDS011;26317;44.894;20.286;2024-03-06T04:20:48;32.72;;;27.88;;
40611;SDS011;26317;44.894;20.286;2024-03-06T04:23:28;37.33;;;29.90;;
40611;SDS011;26317;44.894;20.286;2024-03-06T04:26:07;36.80;;;30.48;;
40611;SDS011;26317;44.894;20.286;2024-03-06T04:28:48;41.42;;;33.72;;
40611;SDS011;26317;44.894;20.286;2024-03-06T04:31:36;41.17;;;31.42;;
40611;SDS011;26317;44.894;20.286;2024-03-06T04:34:20;38.10;;;31.45;;
40611;SDS011;26317;44.894;20.286;2024-03-06T04:37:01;38.38;;;32.58;;
40611;SDS011;26317;44.894;20.286;2024-03-06T04:39:37;39.30;;;33.38;;
40611;SDS011;26317;44.894;20.286;2024-03-06T04:42:12;40.35;;;33.58;;
40611;SDS011;26317;44.894;20.286;2024-03-06T04:47:46;41.42;;;35.10;;
40611;SDS011;26317;44.894;20.286;2024-03-06T04:50:30;46.10;;;36.47;;
40611;SDS011;26317;44.894;20.286;2024-03-06T04:55:48;47.75;;;37.40;;
40611;SDS011;26317;44.894;20.286;2024-03-06T04:58:27;42.30;;;36.63;;
40611;SDS011;26317;44.894;20.286;2024-03-06T05:01:04;42.83;;;36.00;;
40611;SDS011;26317;44.894;20.286;2024-03-06T05:03:56;43.53;;;34.65;;
40611;SDS011;26317;44.894;20.286;2024-03-06T05:06:48;37.88;;;33.78;;
40611;SDS011;26317;44.894;20.286;2024-03-06T05:09:41;36.97;;;30.58;;
40611;SDS011;26317;44.894;20.286;2024-03-06T05:12:37;34.03;;;30.23;;
40611;SDS011;26317;44.894;20.286;2024-03-06T05:15:37;34.28;;;28.95;;
40611;SDS011;26317;44.894;20.286;2024-03-06T05:18:33;34.67;;;28.05;;
40611;SDS011;26317;44.894;20.286;2024-03-06T05:21:34;33.65;;;27.90;;
40611;SDS011;26317;44.894;20.286;2024-03-06T05:24:22;33.75;;;28.25;;
40611;SDS011;26317;44.894;20.286;2024-03-06T05:27:14;35.05;;;26.48;;
40611;SDS011;26317;44.894;20.286;2024-03-06T05:30:03;29.25;;;25.48;;
40611;SDS011;26317;44.894;20.286;2024-03-06T05:32:52;30.77;;;25.20;;
40611;SDS011;26317;44.894;20.286;2024-03-06T05:35:44;31.40;;;25.70;;
40611;SDS011;26317;44.894;20.286;2024-03-06T05:38:41;34.05;;;25.17;;
40611;SDS011;26317;44.894;20.286;2024-03-06T05:41:35;27.42;;;24.25;;
40611;SDS011;26317;44.894;20.286;2024-03-06T05:44:25;29.55;;;23.50;;
40611;SDS011;26317;44.894;20.286;2024-03-06T05:47:17;29.55;;;22.77;;
40611;SDS011;26317;44.894;20.286;2024-03-06T05:50:20;25.73;;;21.20;;
40611;SDS011;26317;44.894;20.286;2024-03-06T05:53:14;24.83;;;21.20;;
40611;SDS011;26317;44.894;20.286;2024-03-06T05:56:09;27.65;;;21.48;;
40611;SDS011;26317;44.894;20.286;2024-03-06T05:59:01;25.80;;;21.38;;
40611;SDS011;26317;44.894;20.286;2024-03-06T06:01:44;25.73;;;19.88;;
40611;SDS011;26317;44.894;20.286;2024-03-06T06:04:19;23.05;;;20.42;;
40611;SDS011;26317;44.894;20.286;2024-03-06T06:06:54;25.80;;;22.02;;
40611;SDS011;26317;44.894;20.286;2024-03-06T06:09:34;26.08;;;21.58;;
40611;SDS011;26317;44.894;20.286;2024-03-06T06:12:18;27.17;;;22.75;;
40611;SDS011;26317;44.894;20.286;2024-03-06T06:14:55;32.60;;;23.95;;
40611;SDS011;26317;44.894;20.286;2024-03-06T06:17:33;34.40;;;25.67;;
40611;SDS011;26317;44.894;20.286;2024-03-06T06:20:12;30.63;;;26.60;;
40611;SDS011;26317;44.894;20.286;2024-03-06T06:23:03;32.63;;;27.55;;
40611;SDS011;26317;44.894;20.286;2024-03-06T06:25:43;36.55;;;29.52;;
40611;SDS011;26317;44.894;20.286;2024-03-06T06:28:25;37.28;;;30.38;;
40611;SDS011;26317;44.894;20.286;2024-03-06T06:31:07;38.47;;;31.45;;
40611;SDS011;26317;44.894;20.286;2024-03-06T06:33:43;41.17;;;33.65;;
40611;SDS011;26317;44.894;20.286;2024-03-06T06:36:27;45.80;;;35.40;;
40611;SDS011;26317;44.894;20.286;2024-03-06T06:39:00;42.47;;;34.63;;
40611;SDS011;26317;44.894;20.286;2024-03-06T06:41:56;45.83;;;36.10;;
40611;SDS011;26317;44.894;20.286;2024-03-06T06:44:43;38.97;;;32.97;;
40611;SDS011;26317;44.894;20.286;2024-03-06T06:47:20;37.75;;;30.50;;
40611;SDS011;26317;44.894;20.286;2024-03-06T06:49:57;39.95;;;31.83;;
40611;SDS011;26317;44.894;20.286;2024-03-06T06:52:36;42.35;;;34.05;;
40611;SDS011;26317;44.894;20.286;2024-03-06T06:55:21;45.13;;;34.83;;
40611;SDS011;26317;44.894;20.286;2024-03-06T06:58:00;70.30;;;53.00;;
40611;SDS011;26317;44.894;20.286;2024-03-06T07:00:57;45.67;;;36.77;;
40611;SDS011;26317;44.894;20.286;2024-03-06T07:03:39;47.40;;;35.88;;
40611;SDS011;26317;44.894;20.286;2024-03-06T07:06:16;42.53;;;34.20;;
40611;SDS011;26317;44.894;20.286;2024-03-06T07:09:01;41.75;;;34.30;;
40611;SDS011;26317;44.894;20.286;2024-03-06T07:11:54;41.92;;;35.17;;
40611;SDS011;26317;44.894;20.286;2024-03-06T07:14:33;45.13;;;35.28;;
40611;SDS011;26317;44.894;20.286;2024-03-06T07:17:25;38.30;;;32.67;;
40611;SDS011;26317;44.894;20.286;2024-03-06T07:20:13;40.72;;;33.08;;
40611;SDS011;26317;44.894;20.286;2024-03-06T07:22:54;34.83;;;28.40;;
40611;SDS011;26317;44.894;20.286;2024-03-06T07:25:31;34.72;;;28.83;;
40611;SDS011;26317;44.894;20.286;2024-03-06T07:28:25;36.72;;;29.27;;
40611;SDS011;26317;44.894;20.286;2024-03-06T07:31:06;34.70;;;28.67;;
40611;SDS011;26317;44.894;20.286;2024-03-06T07:33:51;33.63;;;28.08;;
40611;SDS011;26317;44.894;20.286;2024-03-06T07:36:24;31.27;;;27.95;;
40611;SDS011;26317;44.894;20.286;2024-03-06T07:39:05;39.58;;;31.38;;
40611;SDS011;26317;44.894;20.286;2024-03-06T07:44:32;40.85;;;32.28;;
40611;SDS011;26317;44.894;20.286;2024-03-06T07:47:13;34.38;;;30.70;;
40611;SDS011;26317;44.894;20.286;2024-03-06T07:50:09;37.08;;;29.52;;
40611;SDS011;26317;44.894;20.286;2024-03-06T07:52:54;35.67;;;28.73;;
40611;SDS011;26317;44.894;20.286;2024-03-06T07:55:27;31.45;;;27.20;;
40611;SDS011;26317;44.894;20.286;2024-03-06T07:58:07;31.30;;;27.92;;
40611;SDS011;26317;44.894;20.286;2024-03-06T08:00:45;34.97;;;29.15;;
40611;SDS011;26317;44.894;20.286;2024-03-06T08:03:29;32.63;;;29.13;;
40611;SDS011;26317;44.894;20.286;2024-03-06T08:06:08;42.03;;;31.70;;
40611;SDS011;26317;44.894;20.286;2024-03-06T08:08:54;40.10;;;30.08;;
40611;SDS011;26317;44.894;20.286;2024-03-06T08:11:44;42.22;;;31.10;;
40611;SDS011;26317;44.894;20.286;2024-03-06T08:14:22;38.75;;;32.75;;
40611;SDS011;26317;44.894;20.286;2024-03-06T08:17:04;42.10;;;32.05;;
40611;SDS011;26317;44.894;20.286;2024-03-06T08:19:42;43.00;;;33.60;;
40611;SDS011;26317;44.894;20.286;2024-03-06T08:22:34;41.35;;;34.08;;
40611;SDS011;26317;44.894;20.286;2024-03-06T08:25:13;41.05;;;34.90;;
40611;SDS011;26317;44.894;20.286;2024-03-06T08:27:55;40.88;;;34.17;;
40611;SDS011;26317;44.894;20.286;2024-03-06T08:30:37;37.40;;;33.33;;
40611;SDS011;26317;44.894;20.286;2024-03-06T08:33:19;37.67;;;33.10;;
40611;SDS011;26317;44.894;20.286;2024-03-06T08:35:57;39.78;;;31.98;;
40611;SDS011;26317;44.894;20.286;2024-03-06T08:38:37;38.75;;;32.80;;
40611;SDS011;26317;44.894;20.286;2024-03-06T08:41:26;42.67;;;34.80;;
40611;SDS011;26317;44.894;20.286;2024-03-06T08:44:04;44.97;;;36.00;;
40611;SDS011;26317;44.894;20.286;2024-03-06T08:46:43;42.17;;;34.70;;
40611;SDS011;26317;44.894;20.286;2024-03-06T08:49:33;41.40;;;34.35;;
40611;SDS011;26317;44.894;20.286;2024-03-06T08:52:11;40.28;;;35.78;;
40611;SDS011;26317;44.894;20.286;2024-03-06T08:54:53;51.08;;;37.25;;
40611;SDS011;26317;44.894;20.286;2024-03-06T08:57:30;44.90;;;36.75;;
40611;SDS011;26317;44.894;20.286;2024-03-06T09:00:20;47.63;;;35.35;;
40611;SDS011;26317;44.894;20.286;2024-03-06T09:03:00;42.53;;;34.35;;
40611;SDS011;26317;44.894;20.286;2024-03-06T09:05:37;41.92;;;36.05;;
40611;SDS011;26317;44.894;20.286;2024-03-06T09:08:19;39.22;;;31.45;;
40611;SDS011;26317;44.894;20.286;2024-03-06T09:11:06;36.88;;;31.58;;
40611;SDS011;26317;44.894;20.286;2024-03-06T09:14:01;41.58;;;33.15;;
40611;SDS011;26317;44.894;20.286;2024-03-06T09:16:36;42.15;;;32.88;;
40611;SDS011;26317;44.894;20.286;2024-03-06T09:19:12;38.67;;;33.35;;
40611;SDS011;26317;44.894;20.286;2024-03-06T09:21:46;47.20;;;35.00;;
40611;SDS011;26317;44.894;20.286;2024-03-06T09:27:20;44.88;;;33.33;;
40611;SDS011;26317;44.894;20.286;2024-03-06T09:30:07;45.50;;;33.28;;
40611;SDS011;26317;44.894;20.286;2024-03-06T09:32:57;44.30;;;33.60;;
40611;SDS011;26317;44.894;20.286;2024-03-06T09:35:39;38.47;;;32.00;;
40611;SDS011;26317;44.894;20.286;2024-03-06T09:38:22;37.78;;;31.42;;
40611;SDS011;26317;44.894;20.286;2024-03-06T09:41:04;38.75;;;33.90;;
40611;SDS011;26317;44.894;20.286;2024-03-06T09:43:55;37.13;;;32.70;;
40611;SDS011;26317;44.894;20.286;2024-03-06T09:46:36;38.65;;;33.10;;
40611;SDS011;26317;44.894;20.286;2024-03-06T09:49:12;41.97;;;34.78;;
40611;SDS011;26317;44.894;20.286;2024-03-06T09:51:51;39.17;;;32.20;;
40611;SDS011;26317;44.894;20.286;2024-03-06T09:54:31;36.22;;;30.15;;
40611;SDS011;26317;44.894;20.286;2024-03-06T09:57:16;34.10;;;30.23;;
40611;SDS011;26317;44.894;20.286;2024-03-06T10:00:00;36.75;;;31.38;;
40611;SDS011;26317;44.894;20.286;2024-03-06T10:02:51;35.00;;;29.80;;
40611;SDS011;26317;44.894;20.286;2024-03-06T10:05:38;38.15;;;33.35;;
40611;SDS011;26317;44.894;20.286;2024-03-06T10:08:25;35.60;;;30.30;;
40611;SDS011;26317;44.894;20.286;2024-03-06T10:11:01;41.85;;;33.42;;
40611;SDS011;26317;44.894;20.286;2024-03-06T10:13:44;39.28;;;31.92;;
40611;SDS011;26317;44.894;20.286;2024-03-06T10:16:27;40.20;;;32.58;;
40611;SDS011;26317;44.894;20.286;2024-03-06T10:19:22;37.90;;;32.63;;
40611;SDS011;26317;44.894;20.286;2024-03-06T10:22:21;43.70;;;34.00;;
40611;SDS011;26317;44.894;20.286;2024-03-06T10:25:12;44.53;;;37.20;;
40611;SDS011;26317;44.894;20.286;2024-03-06T10:28:07;42.78;;;36.28;;
40611;SDS011;26317;44.894;20.286;2024-03-06T10:30:47;41.35;;;35.88;;
40611;SDS011;26317;44.894;20.286;2024-03-06T10:33:32;47.03;;;36.63;;
40611;SDS011;26317;44.894;20.286;2024-03-06T10:36:10;44.40;;;35.92;;
40611;SDS011;26317;44.894;20.286;2024-03-06T10:38:55;47.13;;;38.65;;
40611;SDS011;26317;44.894;20.286;2024-03-06T10:41:41;48.10;;;39.15;;
40611;SDS011;26317;44.894;20.286;2024-03-06T10:44:20;50.15;;;40.72;;
40611;SDS011;26317;44.894;20.286;2024-03-06T10:47:08;47.77;;;39.57;;
40611;SDS011;26317;44.894;20.286;2024-03-06T10:49:52;45.83;;;35.13;;
40611;SDS011;26317;44.894;20.286;2024-03-06T10:52:40;39.78;;;33.53;;
40611;SDS011;26317;44.894;20.286;2024-03-06T10:55:24;40.92;;;34.42;;
40611;SDS011;26317;44.894;20.286;2024-03-06T10:58:08;36.28;;;32.28;;
40611;SDS011;26317;44.894;20.286;2024-03-06T11:00:45;39.35;;;32.50;;
40611;SDS011;26317;44.894;20.286;2024-03-06T11:03:19;35.58;;;30.63;;
40611;SDS011;26317;44.894;20.286;2024-03-06T11:06:09;36.13;;;30.75;;
40611;SDS011;26317;44.894;20.286;2024-03-06T11:09:04;35.80;;;29.50;;
40611;SDS011;26317;44.894;20.286;2024-03-06T11:11:49;37.08;;;31.17;;
40611;SDS011;26317;44.894;20.286;2024-03-06T11:14:43;37.70;;;29.98;;
40611;SDS011;26317;44.894;20.286;2024-03-06T11:17:25;35.10;;;29.05;;
40611;SDS011;26317;44.894;20.286;2024-03-06T11:20:17;32.15;;;28.38;;
40611;SDS011;26317;44.894;20.286;2024-03-06T11:23:09;38.10;;;29.50;;
40611;SDS011;26317;44.894;20.286;2024-03-06T11:26:09;37.28;;;30.95;;
40611;SDS011;26317;44.894;20.286;2024-03-06T11:28:47;36.33;;;29.27;;
40611;SDS011;26317;44.894;20.286;2024-03-06T11:31:24;34.08;;;27.50;;
40611;SDS011;26317;44.894;20.286;2024-03-06T11:34:10;34.65;;;29.33;;
40611;SDS011;26317;44.894;20.286;2024-03-06T11:36:52;33.65;;;26.23;;
40611;SDS011;26317;44.894;20.286;2024-03-06T11:39:48;29.02;;;25.98;;
40611;SDS011;26317;44.894;20.286;2024-03-06T11:45:20;30.33;;;26.17;;
40611;SDS011;26317;44.894;20.286;2024-03-06T11:48:01;31.63;;;25.25;;
40611;SDS011;26317;44.894;20.286;2024-03-06T11:50:58;28.27;;;24.50;;
40611;SDS011;26317;44.894;20.286;2024-03-06T11:53:39;29.08;;;25.15;;
40611;SDS011;26317;44.894;20.286;2024-03-06T11:56:21;25.10;;;22.35;;
40611;SDS011;26317;44.894;20.286;2024-03-06T11:58:59;27.30;;;22.55;;
40611;SDS011;26317;44.894;20.286;2024-03-06T12:01:40;26.48;;;22.45;;
40611;SDS011;26317;44.894;20.286;2024-03-06T12:04:16;28.60;;;23.90;;
40611;SDS011;26317;44.894;20.286;2024-03-06T12:07:00;28.77;;;22.38;;
40611;SDS011;26317;44.894;20.286;2024-03-06T12:09:53;32.83;;;24.38;;
40611;SDS011;26317;44.894;20.286;2024-03-06T12:12:44;27.83;;;24.25;;
40611;SDS011;26317;44.894;20.286;2024-03-06T12:15:23;34.35;;;26.95;;
40611;SDS011;26317;44.894;20.286;2024-03-06T12:18:04;27.92;;;23.35;;
40611;SDS011;26317;44.894;20.286;2024-03-06T12:20:43;29.35;;;24.65;;
40611;SDS011;26317;44.894;20.286;2024-03-06T12:23:22;33.17;;;25.45;;
40611;SDS011;26317;44.894;20.286;2024-03-06T12:26:13;30.05;;;26.02;;
40611;SDS011;26317;44.894;20.286;2024-03-06T12:29:02;32.78;;;28.92;;
40611;SDS011;26317;44.894;20.286;2024-03-06T12:31:49;36.35;;;28.08;;
40611;SDS011;26317;44.894;20.286;2024-03-06T12:34:27;33.83;;;28.33;;
40611;SDS011;26317;44.894;20.286;2024-03-06T12:37:09;37.90;;;29.38;;
40611;SDS011;26317;44.894;20.286;2024-03-06T12:42:29;34.42;;;27.40;;
40611;SDS011;26317;44.894;20.286;2024-03-06T12:45:25;31.38;;;26.77;;
40611;SDS011;26317;44.894;20.286;2024-03-06T12:48:03;36.45;;;27.17;;
40611;SDS011;26317;44.894;20.286;2024-03-06T12:50:41;40.30;;;28.63;;
40611;SDS011;26317;44.894;20.286;2024-03-06T12:53:25;33.75;;;28.13;;
40611;SDS011;26317;44.894;20.286;2024-03-06T12:58:51;33.63;;;25.90;;
40611;SDS011;26317;44.894;20.286;2024-03-06T13:01:46;33.95;;;28.15;;
40611;SDS011;26317;44.894;20.286;2024-03-06T13:04:29;30.70;;;27.02;;
40611;SDS011;26317;44.894;20.286;2024-03-06T13:07:10;34.58;;;26.80;;
40611;SDS011;26317;44.894;20.286;2024-03-06T13:09:49;35.10;;;26.75;;
40611;SDS011;26317;44.894;20.286;2024-03-06T13:12:23;32.13;;;26.23;;
40611;SDS011;26317;44.894;20.286;2024-03-06T13:14:58;32.47;;;27.83;;
40611;SDS011;26317;44.894;20.286;2024-03-06T13:17:58;38.95;;;27.83;;
40611;SDS011;26317;44.894;20.286;2024-03-06T13:20:32;34.30;;;29.25;;
40611;SDS011;26317;44.894;20.286;2024-03-06T13:23:11;38.50;;;31.08;;
40611;SDS011;26317;44.894;20.286;2024-03-06T13:25:51;37.95;;;24.80;;
40611;SDS011;26317;44.894;20.286;2024-03-06T13:28:30;15.30;;;11.63;;
40611;SDS011;26317;44.894;20.286;2024-03-06T13:31:17;13.82;;;9.98;;
40611;SDS011;26317;44.894;20.286;2024-03-06T13:33:57;11.60;;;7.25;;
40611;SDS011;26317;44.894;20.286;2024-03-06T13:36:33;8.60;;;5.78;;
40611;SDS011;26317;44.894;20.286;2024-03-06T13:39:04;12.57;;;5.78;;
40611;SDS011;26317;44.894;20.286;2024-03-06T13:41:45;10.68;;;6.25;;
40611;SDS011;26317;44.894;20.286;2024-03-06T13:44:35;15.10;;;12.23;;
40611;SDS011;26317;44.894;20.286;2024-03-06T13:47:18;19.65;;;12.57;;
40611;SDS011;26317;44.894;20.286;2024-03-06T13:50:01;18.55;;;14.73;;
40611;SDS011;26317;44.894;20.286;2024-03-06T13:52:47;21.98;;;14.20;;
40611;SDS011;26317;44.894;20.286;2024-03-06T13:55:24;25.85;;;16.88;;
40611;SDS011;26317;44.894;20.286;2024-03-06T13:58:15;29.80;;;23.15;;
40611;SDS011;26317;44.894;20.286;2024-03-06T14:00:57;33.47;;;25.65;;
40611;SDS011;26317;44.894;20.286;2024-03-06T14:03:35;27.15;;;23.45;;
40611;SDS011;26317;44.894;20.286;2024-03-06T14:06:19;28.35;;;25.08;;
40611;SDS011;26317;44.894;20.286;2024-03-06T14:08:57;28.15;;;24.83;;
40611;SDS011;26317;44.894;20.286;2024-03-06T14:11:40;27.30;;;24.00;;
40611;SDS011;26317;44.894;20.286;2024-03-06T14:14:21;25.33;;;19.85;;
40611;SDS011;26317;44.894;20.286;2024-03-06T14:16:57;22.73;;;19.38;;
40611;SDS011;26317;44.894;20.286;2024-03-06T14:19:43;25.88;;;21.15;;
40611;SDS011;26317;44.894;20.286;2024-03-06T14:22:30;26.95;;;19.52;;
40611;SDS011;26317;44.894;20.286;2024-03-06T14:25:22;24.15;;;20.10;;
40611;SDS011;26317;44.894;20.286;2024-03-06T14:28:13;32.28;;;22.27;;
40611;SDS011;26317;44.894;20.286;2024-03-06T14:30:46;28.75;;;22.20;;
40611;SDS011;26317;44.894;20.286;2024-03-06T14:33:27;22.65;;;18.60;;
40611;SDS011;26317;44.894;20.286;2024-03-06T14:36:11;17.52;;;15.68;;
40611;SDS011;26317;44.894;20.286;2024-03-06T14:38:58;22.90;;;20.48;;
40611;SDS011;26317;44.894;20.286;2024-03-06T14:41:48;27.85;;;22.40;;
40611;SDS011;26317;44.894;20.286;2024-03-06T14:44:35;25.48;;;21.42;;
40611;SDS011;26317;44.894;20.286;2024-03-06T14:47:22;26.60;;;23.00;;
40611;SDS011;26317;44.894;20.286;2024-03-06T14:50:08;30.27;;;22.55;;
40611;SDS011;26317;44.894;20.286;2024-03-06T14:52:47;26.73;;;21.40;;
40611;SDS011;26317;44.894;20.286;2024-03-06T14:55:25;19.88;;;17.80;;
40611;SDS011;26317;44.894;20.286;2024-03-06T14:58:02;24.35;;;20.33;;
40611;SDS011;26317;44.894;20.286;2024-03-06T15:00:51;19.13;;;17.13;;
40611;SDS011;26317;44.894;20.286;2024-03-06T15:03:30;18.13;;;15.85;;
40611;SDS011;26317;44.894;20.286;2024-03-06T15:06:13;19.60;;;16.00;;
40611;SDS011;26317;44.894;20.286;2024-03-06T15:08:54;19.13;;;15.07;;
40611;SDS011;26317;44.894;20.286;2024-03-06T15:11:47;21.42;;;15.32;;
40611;SDS011;26317;44.894;20.286;2024-03-06T15:14:27;20.75;;;17.23;;
40611;SDS011;26317;44.894;20.286;2024-03-06T15:17:14;26.80;;;17.90;;
40611;SDS011;26317;44.894;20.286;2024-03-06T15:19:54;18.17;;;14.20;;
40611;SDS011;26317;44.894;20.286;2024-03-06T15:22:30;17.45;;;13.95;;
40611;SDS011;26317;44.894;20.286;2024-03-06T15:25:10;16.60;;;13.82;;
40611;SDS011;26317;44.894;20.286;2024-03-06T15:28:10;18.92;;;15.82;;
40611;SDS011;26317;44.894;20.286;2024-03-06T15:31:06;21.52;;;15.00;;
40611;SDS011;26317;44.894;20.286;2024-03-06T15:33:42;16.92;;;13.75;;
40611;SDS011;26317;44.894;20.286;2024-03-06T15:36:19;18.50;;;13.68;;
40611;SDS011;26317;44.894;20.286;2024-03-06T15:39:00;21.13;;;12.48;;
40611;SDS011;26317;44.894;20.286;2024-03-06T15:41:40;18.63;;;13.00;;
40611;SDS011;26317;44.894;20.286;2024-03-06T15:44:30;21.75;;;15.40;;
40611;SDS011;26317;44.894;20.286;2024-03-06T15:47:07;19.08;;;15.98;;
40611;SDS011;26317;44.894;20.286;2024-03-06T15:49:50;18.38;;;15.98;;
40611;SDS011;26317;44.894;20.286;2024-03-06T15:52:32;17.40;;;15.57;;
40611;SDS011;26317;44.894;20.286;2024-03-06T15:55:16;22.13;;;17.48;;
40611;SDS011;26317;44.894;20.286;2024-03-06T15:57:52;28.27;;;16.88;;
40611;SDS011;26317;44.894;20.286;2024-03-06T16:00:46;22.25;;;17.35;;
40611;SDS011;26317;44.894;20.286;2024-03-06T16:03:30;25.63;;;19.25;;
40611;SDS011;26317;44.894;20.286;2024-03-06T16:06:14;23.25;;;19.20;;